KFLO/FLO METAR and TAF weather

Enter ICAO airport designator
Station Type Date Time Source
KFLO METAR 2020/04/05 15:53 UTC NOAA

KFLO 051553Z 00000KT 10SM CLR 21/12 A3013 RMK AO2 SLP200 T02110117


Station Type Date Time Source
KFLO Decoded METAR 2020/04/05 15:53 UTC NOAA

FLORENCE REGIONAL AIRPORT, SC, United States (KFLO) 34-11N 079-44W 44M
Apr 05, 2020 - 11:53 AM EDT / 2020.04.05 1553 UTC
Wind: Calm:0
Visibility: 10 mile(s):0
Sky conditions: clear
Temperature: 70.0 F (21.1 C)
Dew Point: 53.1 F (11.7 C)
Relative Humidity: 54%
Pressure (altimeter): 30.13 in. Hg (1020 hPa)
ob: KFLO 051553Z 00000KT 10SM CLR 21/12 A3013 RMK AO2 SLP200 T02110117
cycle: 16

Station Type Date Time Source
KFLO TAF 2020/04/05 12:36 UTC NOAA

TAF KFLO 051134Z 0512/0612 10009KT P6SM SCT120
FM051800 16006KT P6SM FEW050 SCT100
FM060400 19004KT P6SM SCT120
FM061100 23004KT 5SM BR SCT100

Example: see airport list